sensor_id;sensor_type;location;lat;lon;timestamp;pressure;altitude;pressure_sealevel;temperature;humidity
83815;BME280;73829;53.826;-3.034;2024-03-08T00:01:32;101589.30;;;17.66;53.57
83815;BME280;73829;53.826;-3.034;2024-03-08T00:04:04;101589.84;;;17.65;53.53
83815;BME280;73829;53.826;-3.034;2024-03-08T00:06:35;101586.33;;;17.65;53.58
83815;BME280;73829;53.826;-3.034;2024-03-08T00:09:07;101582.48;;;17.64;53.55
83815;BME280;73829;53.826;-3.034;2024-03-08T00:11:38;101581.61;;;17.64;53.64
83815;BME280;73829;53.826;-3.034;2024-03-08T00:14:09;101581.45;;;17.64;53.59
83815;BME280;73829;53.826;-3.034;2024-03-08T00:16:41;101572.02;;;17.61;53.62
83815;BME280;73829;53.826;-3.034;2024-03-08T00:19:13;101577.46;;;17.61;53.55
83815;BME280;73829;53.826;-3.034;2024-03-08T00:21:44;101571.52;;;17.60;53.64
83815;BME280;73829;53.826;-3.034;2024-03-08T00:24:15;101567.08;;;17.61;53.47
83815;BME280;73829;53.826;-3.034;2024-03-08T00:26:46;101561.45;;;17.61;53.60
83815;BME280;73829;53.826;-3.034;2024-03-08T00:29:17;101557.80;;;17.60;53.50
83815;BME280;73829;53.826;-3.034;2024-03-08T00:31:49;101555.58;;;17.57;53.71
83815;BME280;73829;53.826;-3.034;2024-03-08T00:34:20;101554.67;;;17.58;53.59
83815;BME280;73829;53.826;-3.034;2024-03-08T00:36:51;101552.92;;;17.58;53.56
83815;BME280;73829;53.826;-3.034;2024-03-08T00:39:22;101553.28;;;17.58;53.67
83815;BME280;73829;53.826;-3.034;2024-03-08T00:41:55;101543.98;;;17.57;53.50
83815;BME280;73829;53.826;-3.034;2024-03-08T00:44:26;101547.02;;;17.56;53.43
83815;BME280;73829;53.826;-3.034;2024-03-08T00:46:58;101547.05;;;17.54;53.67
83815;BME280;73829;53.826;-3.034;2024-03-08T00:49:30;101552.14;;;17.55;53.51
83815;BME280;73829;53.826;-3.034;2024-03-08T00:52:01;101550.03;;;17.55;53.51
83815;BME280;73829;53.826;-3.034;2024-03-08T00:54:32;101551.98;;;17.54;53.53
83815;BME280;73829;53.826;-3.034;2024-03-08T00:57:03;101545.14;;;17.53;53.49
83815;BME280;73829;53.826;-3.034;2024-03-08T00:59:37;101543.57;;;17.53;53.51
83815;BME280;73829;53.826;-3.034;2024-03-08T01:02:08;101542.17;;;17.53;53.42
83815;BME280;73829;53.826;-3.034;2024-03-08T01:04:40;101541.66;;;17.52;53.43
83815;BME280;73829;53.826;-3.034;2024-03-08T01:07:11;101538.86;;;17.52;53.44
83815;BME280;73829;53.826;-3.034;2024-03-08T01:09:42;101532.01;;;17.51;53.52
83815;BME280;73829;53.826;-3.034;2024-03-08T01:12:14;101527.45;;;17.51;53.44
83815;BME280;73829;53.826;-3.034;2024-03-08T01:14:45;101522.20;;;17.50;53.43
83815;BME280;73829;53.826;-3.034;2024-03-08T01:17:16;101522.39;;;17.50;53.44
83815;BME280;73829;53.826;-3.034;2024-03-08T01:19:48;101515.93;;;17.48;53.53
83815;BME280;73829;53.826;-3.034;2024-03-08T01:22:19;101515.38;;;17.49;53.52
83815;BME280;73829;53.826;-3.034;2024-03-08T01:24:52;101509.84;;;17.46;53.40
83815;BME280;73829;53.826;-3.034;2024-03-08T01:27:23;101506.50;;;17.45;53.40
83815;BME280;73829;53.826;-3.034;2024-03-08T01:29:55;101506.61;;;17.47;53.32
83815;BME280;73829;53.826;-3.034;2024-03-08T01:32:26;101504.52;;;17.47;53.29
83815;BME280;73829;53.826;-3.034;2024-03-08T01:34:57;101501.03;;;17.46;53.42
83815;BME280;73829;53.826;-3.034;2024-03-08T01:37:29;101498.92;;;17.46;53.56
83815;BME280;73829;53.826;-3.034;2024-03-08T01:40:00;101499.98;;;17.46;53.48
83815;BME280;73829;53.826;-3.034;2024-03-08T01:42:32;101490.16;;;17.45;53.35
83815;BME280;73829;53.826;-3.034;2024-03-08T01:45:04;101489.11;;;17.45;53.40
83815;BME280;73829;53.826;-3.034;2024-03-08T01:47:35;101485.08;;;17.44;53.33
83815;BME280;73829;53.826;-3.034;2024-03-08T01:50:09;101487.55;;;17.44;53.44
83815;BME280;73829;53.826;-3.034;2024-03-08T01:52:40;101481.09;;;17.43;53.37
83815;BME280;73829;53.826;-3.034;2024-03-08T01:55:11;101478.97;;;17.43;53.39
83815;BME280;73829;53.826;-3.034;2024-03-08T01:57:44;101471.65;;;17.40;53.40
83815;BME280;73829;53.826;-3.034;2024-03-08T02:00:17;101478.98;;;17.42;53.46
83815;BME280;73829;53.826;-3.034;2024-03-08T02:02:50;101472.33;;;17.41;53.36
83815;BME280;73829;53.826;-3.034;2024-03-08T02:05:23;101467.23;;;17.41;53.36
83815;BME280;73829;53.826;-3.034;2024-03-08T02:07:54;101466.02;;;17.40;53.45
83815;BME280;73829;53.826;-3.034;2024-03-08T02:10:26;101462.55;;;17.39;53.41
83815;BME280;73829;53.826;-3.034;2024-03-08T02:12:58;101461.85;;;17.39;53.36
83815;BME280;73829;53.826;-3.034;2024-03-08T02:15:52;101458.69;;;17.38;53.30
83815;BME280;73829;53.826;-3.034;2024-03-08T02:18:25;101458.35;;;17.38;53.24
83815;BME280;73829;53.826;-3.034;2024-03-08T02:20:57;101455.19;;;17.37;53.34
83815;BME280;73829;53.826;-3.034;2024-03-08T02:23:28;101453.97;;;17.37;53.34
83815;BME280;73829;53.826;-3.034;2024-03-08T02:26:00;101447.70;;;17.35;53.24
83815;BME280;73829;53.826;-3.034;2024-03-08T02:28:31;101443.29;;;17.36;53.34
83815;BME280;73829;53.826;-3.034;2024-03-08T02:31:03;101440.31;;;17.35;53.31
83815;BME280;73829;53.826;-3.034;2024-03-08T02:33:37;101438.90;;;17.35;53.36
83815;BME280;73829;53.826;-3.034;2024-03-08T02:36:09;101434.33;;;17.35;53.20
83815;BME280;73829;53.826;-3.034;2024-03-08T02:38:41;101422.31;;;17.32;53.25
83815;BME280;73829;53.826;-3.034;2024-03-08T02:41:12;101424.19;;;17.33;53.31
83815;BME280;73829;53.826;-3.034;2024-03-08T02:43:44;101419.09;;;17.33;53.25
83815;BME280;73829;53.826;-3.034;2024-03-08T02:46:15;101408.58;;;17.32;53.26
83815;BME280;73829;53.826;-3.034;2024-03-08T02:48:46;101398.62;;;17.30;53.16
83815;BME280;73829;53.826;-3.034;2024-03-08T02:51:17;101396.30;;;17.31;53.35
83815;BME280;73829;53.826;-3.034;2024-03-08T02:53:50;101390.20;;;17.30;53.27
83815;BME280;73829;53.826;-3.034;2024-03-08T02:56:21;101386.99;;;17.31;53.22
83815;BME280;73829;53.826;-3.034;2024-03-08T02:58:52;101385.95;;;17.30;53.24
83815;BME280;73829;53.826;-3.034;2024-03-08T03:01:26;101379.89;;;17.28;53.18
83815;BME280;73829;53.826;-3.034;2024-03-08T03:03:58;101380.16;;;17.30;53.31
83815;BME280;73829;53.826;-3.034;2024-03-08T03:06:29;101377.54;;;17.29;53.07
83815;BME280;73829;53.826;-3.034;2024-03-08T03:09:01;101371.94;;;17.29;53.06
83815;BME280;73829;53.826;-3.034;2024-03-08T03:11:32;101369.48;;;17.28;53.27
83815;BME280;73829;53.826;-3.034;2024-03-08T03:14:03;101365.27;;;17.28;53.25
83815;BME280;73829;53.826;-3.034;2024-03-08T03:16:34;101365.46;;;17.27;53.22
83815;BME280;73829;53.826;-3.034;2024-03-08T03:19:05;101359.67;;;17.27;53.24
83815;BME280;73829;53.826;-3.034;2024-03-08T03:21:37;101357.05;;;17.26;53.21
83815;BME280;73829;53.826;-3.034;2024-03-08T03:24:09;101353.02;;;17.26;53.06
83815;BME280;73829;53.826;-3.034;2024-03-08T03:26:40;101355.33;;;17.26;53.08
83815;BME280;73829;53.826;-3.034;2024-03-08T03:29:15;101352.16;;;17.25;53.24
83815;BME280;73829;53.826;-3.034;2024-03-08T03:31:48;101345.73;;;17.23;53.16
83815;BME280;73829;53.826;-3.034;2024-03-08T03:34:19;101349.71;;;17.25;53.08
83815;BME280;73829;53.826;-3.034;2024-03-08T03:36:50;101350.78;;;17.25;53.07
83815;BME280;73829;53.826;-3.034;2024-03-08T03:39:22;101349.75;;;17.24;53.10
83815;BME280;73829;53.826;-3.034;2024-03-08T03:41:54;101342.39;;;17.23;53.10
83815;BME280;73829;53.826;-3.034;2024-03-08T03:44:25;101341.42;;;17.20;53.34
83815;BME280;73829;53.826;-3.034;2024-03-08T03:46:56;101341.53;;;17.22;53.05
83815;BME280;73829;53.826;-3.034;2024-03-08T03:49:27;101339.42;;;17.22;53.24
83815;BME280;73829;53.826;-3.034;2024-03-08T03:51:59;101339.45;;;17.22;53.17
83815;BME280;73829;53.826;-3.034;2024-03-08T03:54:30;101335.41;;;17.21;53.30
83815;BME280;73829;53.826;-3.034;2024-03-08T03:57:01;101333.14;;;17.21;52.95
83815;BME280;73829;53.826;-3.034;2024-03-08T03:59:32;101332.80;;;17.20;53.10
83815;BME280;73829;53.826;-3.034;2024-03-08T04:02:03;101328.42;;;17.20;53.22
83815;BME280;73829;53.826;-3.034;2024-03-08T04:04:41;101320.92;;;17.18;53.11
83815;BME280;73829;53.826;-3.034;2024-03-08T04:07:12;101316.35;;;17.18;53.01
83815;BME280;73829;53.826;-3.034;2024-03-08T04:09:43;101312.48;;;17.18;53.05
83815;BME280;73829;53.826;-3.034;2024-03-08T04:12:14;101311.41;;;17.18;53.14
83815;BME280;73829;53.826;-3.034;2024-03-08T04:14:46;101306.51;;;17.18;53.06
83815;BME280;73829;53.826;-3.034;2024-03-08T04:17:17;101302.48;;;17.18;53.09
83815;BME280;73829;53.826;-3.034;2024-03-08T04:19:48;101296.87;;;17.17;53.07
83815;BME280;73829;53.826;-3.034;2024-03-08T04:22:20;101293.53;;;17.17;53.08
83815;BME280;73829;53.826;-3.034;2024-03-08T04:24:51;101287.58;;;17.17;52.99
83815;BME280;73829;53.826;-3.034;2024-03-08T04:27:22;101282.32;;;17.16;53.02
83815;BME280;73829;53.826;-3.034;2024-03-08T04:29:53;101277.23;;;17.15;52.98
83815;BME280;73829;53.826;-3.034;2024-03-08T04:32:24;101276.89;;;17.15;53.02
83815;BME280;73829;53.826;-3.034;2024-03-08T04:34:57;101275.14;;;17.14;53.15
83815;BME280;73829;53.826;-3.034;2024-03-08T04:37:31;101267.60;;;17.13;53.19
83815;BME280;73829;53.826;-3.034;2024-03-08T04:40:02;101266.92;;;17.13;53.09
83815;BME280;73829;53.826;-3.034;2024-03-08T04:42:34;101265.38;;;17.12;52.92
83815;BME280;73829;53.826;-3.034;2024-03-08T04:45:08;101268.34;;;17.13;52.90
83815;BME280;73829;53.826;-3.034;2024-03-08T04:47:40;101264.30;;;17.12;52.94
83815;BME280;73829;53.826;-3.034;2024-03-08T04:50:12;101259.05;;;17.12;53.06
83815;BME280;73829;53.826;-3.034;2024-03-08T04:52:43;101254.33;;;17.11;53.10
83815;BME280;73829;53.826;-3.034;2024-03-08T04:55:14;101253.27;;;17.11;52.93
83815;BME280;73829;53.826;-3.034;2024-03-08T04:57:45;101248.54;;;17.10;53.04
83815;BME280;73829;53.826;-3.034;2024-03-08T05:00:18;101249.92;;;17.10;53.06
83815;BME280;73829;53.826;-3.034;2024-03-08T05:02:50;101241.42;;;17.08;52.95
83815;BME280;73829;53.826;-3.034;2024-03-08T05:05:29;101240.85;;;17.09;52.97
83815;BME280;73829;53.826;-3.034;2024-03-08T05:08:00;101233.89;;;17.07;53.00
83815;BME280;73829;53.826;-3.034;2024-03-08T05:10:32;101232.95;;;17.08;52.95
83815;BME280;73829;53.826;-3.034;2024-03-08T05:13:04;101233.85;;;17.08;52.99
83815;BME280;73829;53.826;-3.034;2024-03-08T05:15:35;101229.45;;;17.07;52.93
83815;BME280;73829;53.826;-3.034;2024-03-08T05:18:06;101228.77;;;17.07;52.92
83815;BME280;73829;53.826;-3.034;2024-03-08T05:20:38;101227.77;;;17.06;52.92
83815;BME280;73829;53.826;-3.034;2024-03-08T05:23:11;101224.41;;;17.06;52.97
83815;BME280;73829;53.826;-3.034;2024-03-08T05:25:42;101225.31;;;17.06;52.97
83815;BME280;73829;53.826;-3.034;2024-03-08T05:28:13;101222.69;;;17.05;52.87
83815;BME280;73829;53.826;-3.034;2024-03-08T05:30:45;101213.56;;;17.05;52.92
83815;BME280;73829;53.826;-3.034;2024-03-08T05:33:16;101211.64;;;17.05;52.93
83815;BME280;73829;53.826;-3.034;2024-03-08T05:35:48;101202.67;;;17.05;52.95
83815;BME280;73829;53.826;-3.034;2024-03-08T05:38:22;101194.41;;;17.05;52.99
83815;BME280;73829;53.826;-3.034;2024-03-08T05:40:54;101193.20;;;17.04;52.96
83815;BME280;73829;53.826;-3.034;2024-03-08T05:43:25;101194.42;;;17.04;52.81
83815;BME280;73829;53.826;-3.034;2024-03-08T05:45:56;101194.45;;;17.03;53.09
83815;BME280;73829;53.826;-3.034;2024-03-08T05:48:27;101194.83;;;17.03;52.97
83815;BME280;73829;53.826;-3.034;2024-03-08T05:50:59;101188.73;;;17.01;52.86
83815;BME280;73829;53.826;-3.034;2024-03-08T05:53:31;101192.55;;;17.02;53.09
83815;BME280;73829;53.826;-3.034;2024-03-08T05:56:02;101193.78;;;17.02;52.97
83815;BME280;73829;53.826;-3.034;2024-03-08T05:58:33;101190.10;;;17.02;52.88
83815;BME280;73829;53.826;-3.034;2024-03-08T06:01:05;101178.77;;;16.99;53.08
83815;BME280;73829;53.826;-3.034;2024-03-08T06:03:38;101182.73;;;17.01;52.83
83815;BME280;73829;53.826;-3.034;2024-03-08T06:06:15;101183.63;;;17.01;52.89
83815;BME280;73829;53.826;-3.034;2024-03-08T06:08:47;101179.24;;;17.01;52.91
83815;BME280;73829;53.826;-3.034;2024-03-08T06:11:19;101175.92;;;17.00;52.85
83815;BME280;73829;53.826;-3.034;2024-03-08T06:13:51;101176.31;;;16.99;52.88
83815;BME280;73829;53.826;-3.034;2024-03-08T06:16:25;101176.32;;;16.99;52.90
83815;BME280;73829;53.826;-3.034;2024-03-08T06:18:59;101177.55;;;16.99;52.73
83815;BME280;73829;53.826;-3.034;2024-03-08T06:21:32;101175.11;;;16.99;52.91
83815;BME280;73829;53.826;-3.034;2024-03-08T06:24:03;101170.55;;;16.98;52.71
83815;BME280;73829;53.826;-3.034;2024-03-08T06:26:35;101173.17;;;16.98;53.00
83815;BME280;73829;53.826;-3.034;2024-03-08T06:29:07;101170.21;;;16.98;52.98
83815;BME280;73829;53.826;-3.034;2024-03-08T06:31:39;101170.73;;;16.98;52.87
83815;BME280;73829;53.826;-3.034;2024-03-08T06:34:10;101170.91;;;16.98;52.94
83815;BME280;73829;53.826;-3.034;2024-03-08T06:36:41;101171.61;;;16.98;52.97
83815;BME280;73829;53.826;-3.034;2024-03-08T06:39:13;101168.14;;;16.97;52.84
83815;BME280;73829;53.826;-3.034;2024-03-08T06:41:44;101161.64;;;16.97;52.96
83815;BME280;73829;53.826;-3.034;2024-03-08T06:44:16;101161.65;;;16.96;52.95
83815;BME280;73829;53.826;-3.034;2024-03-08T06:46:47;101156.91;;;16.96;52.90
83815;BME280;73829;53.826;-3.034;2024-03-08T06:49:18;101156.40;;;16.96;52.92
83815;BME280;73829;53.826;-3.034;2024-03-08T06:51:50;101155.00;;;16.96;52.89
83815;BME280;73829;53.826;-3.034;2024-03-08T06:54:21;101146.80;;;16.94;52.79
83815;BME280;73829;53.826;-3.034;2024-03-08T06:56:53;101149.73;;;16.95;52.92
83815;BME280;73829;53.826;-3.034;2024-03-08T06:59:24;101145.88;;;16.95;52.87
83815;BME280;73829;53.826;-3.034;2024-03-08T07:01:55;101143.61;;;16.94;52.96
83815;BME280;73829;53.826;-3.034;2024-03-08T07:04:26;101142.05;;;16.94;52.85
83815;BME280;73829;53.826;-3.034;2024-03-08T07:06:59;101142.04;;;16.94;52.80
83815;BME280;73829;53.826;-3.034;2024-03-08T07:09:32;101138.58;;;16.93;52.97
83815;BME280;73829;53.826;-3.034;2024-03-08T07:12:03;101139.27;;;16.93;52.75
83815;BME280;73829;53.826;-3.034;2024-03-08T07:14:36;101132.98;;;16.92;52.73
83815;BME280;73829;53.826;-3.034;2024-03-08T07:17:10;101135.07;;;16.93;52.76
83815;BME280;73829;53.826;-3.034;2024-03-08T07:19:41;101130.73;;;16.90;52.75
83815;BME280;73829;53.826;-3.034;2024-03-08T07:22:13;101132.80;;;16.92;52.86
83815;BME280;73829;53.826;-3.034;2024-03-08T07:24:44;101136.84;;;16.91;52.80
83815;BME280;73829;53.826;-3.034;2024-03-08T07:27:34;101133.17;;;16.91;52.75
83815;BME280;73829;53.826;-3.034;2024-03-08T07:30:07;101135.44;;;16.91;52.77
83815;BME280;73829;53.826;-3.034;2024-03-08T07:32:40;101135.63;;;16.91;52.80
83815;BME280;73829;53.826;-3.034;2024-03-08T07:35:11;101133.18;;;16.90;52.88
83815;BME280;73829;53.826;-3.034;2024-03-08T07:37:42;101133.03;;;16.90;52.76
83815;BME280;73829;53.826;-3.034;2024-03-08T07:40:14;101130.91;;;16.90;52.71
83815;BME280;73829;53.826;-3.034;2024-03-08T07:42:47;101130.93;;;16.90;52.82
83815;BME280;73829;53.826;-3.034;2024-03-08T07:45:18;101128.67;;;16.89;52.79
83815;BME280;73829;53.826;-3.034;2024-03-08T07:47:53;101126.91;;;16.89;52.79
83815;BME280;73829;53.826;-3.034;2024-03-08T07:50:25;101127.62;;;16.89;52.72
83815;BME280;73829;53.826;-3.034;2024-03-08T07:52:56;101127.80;;;16.89;52.83
83815;BME280;73829;53.826;-3.034;2024-03-08T07:55:28;101126.75;;;16.89;52.78
83815;BME280;73829;53.826;-3.034;2024-03-08T07:58:01;101126.41;;;16.88;52.71
83815;BME280;73829;53.826;-3.034;2024-03-08T08:00:32;101125.88;;;16.89;52.71
83815;BME280;73829;53.826;-3.034;2024-03-08T08:03:03;101119.71;;;16.88;52.79
83815;BME280;73829;53.826;-3.034;2024-03-08T08:05:35;101111.66;;;16.88;52.76
83815;BME280;73829;53.826;-3.034;2024-03-08T08:08:08;101110.79;;;16.88;52.69
83815;BME280;73829;53.826;-3.034;2024-03-08T08:10:40;101106.56;;;16.87;52.82
83815;BME280;73829;53.826;-3.034;2024-03-08T08:13:12;101100.26;;;16.87;52.69
83815;BME280;73829;53.826;-3.034;2024-03-08T08:15:43;101101.14;;;16.87;52.72
83815;BME280;73829;53.826;-3.034;2024-03-08T08:18:15;101093.94;;;16.87;52.72
83815;BME280;73829;53.826;-3.034;2024-03-08T08:20:49;101093.77;;;16.87;52.85
83815;BME280;73829;53.826;-3.034;2024-03-08T08:23:22;101092.04;;;16.86;52.93
83815;BME280;73829;53.826;-3.034;2024-03-08T08:25:53;101089.23;;;16.86;52.77
83815;BME280;73829;53.826;-3.034;2024-03-08T08:28:25;101080.19;;;16.84;52.81
83815;BME280;73829;53.826;-3.034;2024-03-08T08:30:56;101079.41;;;16.85;52.75
83815;BME280;73829;53.826;-3.034;2024-03-08T08:33:29;101074.67;;;16.85;52.79
83815;BME280;73829;53.826;-3.034;2024-03-08T08:36:00;101071.52;;;16.84;52.73
83815;BME280;73829;53.826;-3.034;2024-03-08T08:38:31;101072.57;;;16.85;52.92
83815;BME280;73829;53.826;-3.034;2024-03-08T08:41:03;101068.34;;;16.85;52.97
83815;BME280;73829;53.826;-3.034;2024-03-08T08:43:35;101069.02;;;16.86;52.93
83815;BME280;73829;53.826;-3.034;2024-03-08T08:46:06;101067.75;;;16.87;52.94
83815;BME280;73829;53.826;-3.034;2024-03-08T08:48:37;101068.22;;;16.89;53.08
83815;BME280;73829;53.826;-3.034;2024-03-08T08:51:11;101066.96;;;16.90;53.07
83815;BME280;73829;53.826;-3.034;2024-03-08T08:53:44;101066.54;;;16.92;53.29
83815;BME280;73829;53.826;-3.034;2024-03-08T08:56:16;101063.82;;;16.94;53.19
83815;BME280;73829;53.826;-3.034;2024-03-08T08:58:48;101061.13;;;16.96;53.20
83815;BME280;73829;53.826;-3.034;2024-03-08T09:01:23;101058.61;;;16.98;53.31
83815;BME280;73829;53.826;-3.034;2024-03-08T09:03:54;101052.75;;;16.99;53.24
83815;BME280;73829;53.826;-3.034;2024-03-08T09:06:26;101047.08;;;17.01;53.25
83815;BME280;73829;53.826;-3.034;2024-03-08T09:08:57;101046.33;;;17.02;52.99
83815;BME280;73829;53.826;-3.034;2024-03-08T09:11:28;101037.55;;;17.01;52.78
83815;BME280;73829;53.826;-3.034;2024-03-08T09:13:59;101037.77;;;17.00;52.66
83815;BME280;73829;53.826;-3.034;2024-03-08T09:16:31;101040.65;;;16.98;52.69
83815;BME280;73829;53.826;-3.034;2024-03-08T09:19:03;101035.25;;;16.97;52.61
83815;BME280;73829;53.826;-3.034;2024-03-08T09:21:35;101034.60;;;16.96;52.73
83815;BME280;73829;53.826;-3.034;2024-03-08T09:24:07;101035.48;;;16.95;52.83
83815;BME280;73829;53.826;-3.034;2024-03-08T09:26:38;101032.34;;;16.95;52.86
83815;BME280;73829;53.826;-3.034;2024-03-08T09:29:12;101026.38;;;16.95;53.03
83815;BME280;73829;53.826;-3.034;2024-03-08T09:31:43;101022.39;;;16.93;53.14
83815;BME280;73829;53.826;-3.034;2024-03-08T09:34:16;101020.20;;;16.95;53.18
83815;BME280;73829;53.826;-3.034;2024-03-08T09:36:48;101017.55;;;16.95;53.25
83815;BME280;73829;53.826;-3.034;2024-03-08T09:39:20;101013.50;;;16.96;53.16
83815;BME280;73829;53.826;-3.034;2024-03-08T09:41:51;101011.55;;;16.97;53.30
83815;BME280;73829;53.826;-3.034;2024-03-08T09:44:24;101009.07;;;16.97;53.28
83815;BME280;73829;53.826;-3.034;2024-03-08T09:47:00;101010.14;;;16.97;53.15
83815;BME280;73829;53.826;-3.034;2024-03-08T09:49:32;101011.23;;;16.95;53.15
83815;BME280;73829;53.826;-3.034;2024-03-08T09:52:04;101010.38;;;16.95;53.20
83815;BME280;73829;53.826;-3.034;2024-03-08T09:54:36;101005.73;;;16.92;53.08
83815;BME280;73829;53.826;-3.034;2024-03-08T09:57:07;101005.38;;;16.92;53.15
83815;BME280;73829;53.826;-3.034;2024-03-08T09:59:39;100999.69;;;16.89;52.89
83815;BME280;73829;53.826;-3.034;2024-03-08T10:02:17;100995.27;;;16.90;52.86
83815;BME280;73829;53.826;-3.034;2024-03-08T10:04:48;100993.89;;;16.89;52.80
83815;BME280;73829;53.826;-3.034;2024-03-08T10:07:19;100989.16;;;16.88;52.87
83815;BME280;73829;53.826;-3.034;2024-03-08T10:09:53;100987.63;;;16.87;52.99
83815;BME280;73829;53.826;-3.034;2024-03-08T10:12:24;100985.38;;;16.86;53.15
83815;BME280;73829;53.826;-3.034;2024-03-08T10:14:57;100983.48;;;16.85;53.10
83815;BME280;73829;53.826;-3.034;2024-03-08T10:17:29;100977.52;;;16.85;52.31
83815;BME280;73829;53.826;-3.034;2024-03-08T10:20:02;100973.67;;;16.84;52.19
83815;BME280;73829;53.826;-3.034;2024-03-08T10:22:34;100967.58;;;16.83;52.45
83815;BME280;73829;53.826;-3.034;2024-03-08T10:25:08;100964.38;;;16.83;52.72
83815;BME280;73829;53.826;-3.034;2024-03-08T10:27:41;100955.56;;;16.84;52.56
83815;BME280;73829;53.826;-3.034;2024-03-08T10:30:15;100954.43;;;16.86;52.58
83815;BME280;73829;53.826;-3.034;2024-03-08T10:32:51;100950.69;;;16.88;52.60
83815;BME280;73829;53.826;-3.034;2024-03-08T10:35:22;100948.37;;;16.88;52.54
83815;BME280;73829;53.826;-3.034;2024-03-08T10:37:53;100946.41;;;16.89;52.65
83815;BME280;73829;53.826;-3.034;2024-03-08T10:40:29;100943.21;;;16.90;52.47
83815;BME280;73829;53.826;-3.034;2024-03-08T10:43:02;100939.39;;;16.90;52.31
83815;BME280;73829;53.826;-3.034;2024-03-08T10:45:37;100941.45;;;16.91;52.30
83815;BME280;73829;53.826;-3.034;2024-03-08T10:48:24;100945.13;;;16.91;52.15
83815;BME280;73829;53.826;-3.034;2024-03-08T10:51:01;100943.17;;;16.92;52.19
83815;BME280;73829;53.826;-3.034;2024-03-08T10:53:35;100936.81;;;16.93;52.39
83815;BME280;73829;53.826;-3.034;2024-03-08T10:56:11;100938.18;;;16.94;52.35
83815;BME280;73829;53.826;-3.034;2024-03-08T10:58:44;100939.70;;;16.95;52.60
83815;BME280;73829;53.826;-3.034;2024-03-08T11:01:18;100928.95;;;16.96;52.40
83815;BME280;73829;53.826;-3.034;2024-03-08T11:03:57;100928.38;;;16.98;52.63
83815;BME280;73829;53.826;-3.034;2024-03-08T11:06:43;100923.77;;;16.98;52.50
83815;BME280;73829;53.826;-3.034;2024-03-08T11:09:34;100922.35;;;16.99;52.43
83815;BME280;73829;53.826;-3.034;2024-03-08T11:12:23;100919.84;;;17.00;52.56
83815;BME280;73829;53.826;-3.034;2024-03-08T11:15:00;100911.34;;;17.02;52.58
83815;BME280;73829;53.826;-3.034;2024-03-08T11:17:46;100910.59;;;17.03;52.59
83815;BME280;73829;53.826;-3.034;2024-03-08T11:20:19;100906.16;;;17.04;52.79
83815;BME280;73829;53.826;-3.034;2024-03-08T11:22:55;100899.64;;;17.04;52.68
83815;BME280;73829;53.826;-3.034;2024-03-08T11:25:40;100900.84;;;17.05;52.81
83815;BME280;73829;53.826;-3.034;2024-03-08T11:28:16;100895.69;;;17.07;52.85
83815;BME280;73829;53.826;-3.034;2024-03-08T11:33:41;100893.77;;;17.11;52.81
83815;BME280;73829;53.826;-3.034;2024-03-08T11:36:19;100890.84;;;17.09;52.67
83815;BME280;73829;53.826;-3.034;2024-03-08T11:38:52;100892.05;;;17.10;52.71
83815;BME280;73829;53.826;-3.034;2024-03-08T11:41:25;100886.61;;;17.10;52.74
83815;BME280;73829;53.826;-3.034;2024-03-08T11:44:05;100884.54;;;17.09;52.67
83815;BME280;73829;53.826;-3.034;2024-03-08T11:46:37;100892.70;;;17.07;52.62
83815;BME280;73829;53.826;-3.034;2024-03-08T11:49:12;100892.72;;;17.06;52.76
83815;BME280;73829;53.826;-3.034;2024-03-08T11:51:44;100887.66;;;17.05;52.72
83815;BME280;73829;53.826;-3.034;2024-03-08T11:54:16;100884.70;;;17.04;52.87
83815;BME280;73829;53.826;-3.034;2024-03-08T11:56:47;100881.58;;;17.03;52.81
83815;BME280;73829;53.826;-3.034;2024-03-08T11:59:18;100883.20;;;17.02;52.97
83815;BME280;73829;53.826;-3.034;2024-03-08T12:02:01;100875.50;;;17.01;52.88
83815;BME280;73829;53.826;-3.034;2024-03-08T12:04:33;100878.16;;;17.01;52.80
83815;BME280;73829;53.826;-3.034;2024-03-08T12:07:05;100872.56;;;17.00;52.74
83815;BME280;73829;53.826;-3.034;2024-03-08T12:09:41;100868.02;;;16.99;52.78
83815;BME280;73829;53.826;-3.034;2024-03-08T12:12:16;100864.85;;;16.99;52.80
83815;BME280;73829;53.826;-3.034;2024-03-08T12:14:47;100860.03;;;16.97;52.66
83815;BME280;73829;53.826;-3.034;2024-03-08T12:17:19;100858.05;;;16.98;52.74
83815;BME280;73829;53.826;-3.034;2024-03-08T12:19:50;100858.77;;;16.98;52.76
83815;BME280;73829;53.826;-3.034;2024-03-08T12:22:26;100856.82;;;16.98;52.76
83815;BME280;73829;53.826;-3.034;2024-03-08T12:25:06;100853.17;;;16.97;52.93
83815;BME280;73829;53.826;-3.034;2024-03-08T12:27:40;100839.45;;;16.97;52.89
83815;BME280;73829;53.826;-3.034;2024-03-08T12:30:20;100833.79;;;16.98;52.93
83815;BME280;73829;53.826;-3.034;2024-03-08T12:32:54;100829.74;;;16.98;52.87
83815;BME280;73829;53.826;-3.034;2024-03-08T12:35:29;100827.97;;;16.99;52.96
83815;BME280;73829;53.826;-3.034;2024-03-08T12:38:02;100826.19;;;16.99;52.89
83815;BME280;73829;53.826;-3.034;2024-03-08T12:40:35;100830.40;;;17.00;53.04
83815;BME280;73829;53.826;-3.034;2024-03-08T12:43:11;100827.05;;;17.00;52.99
83815;BME280;73829;53.826;-3.034;2024-03-08T12:45:45;100823.20;;;16.99;53.08
83815;BME280;73829;53.826;-3.034;2024-03-08T12:48:17;100822.87;;;16.99;52.97
83815;BME280;73829;53.826;-3.034;2024-03-08T12:50:50;100816.77;;;16.98;52.98
83815;BME280;73829;53.826;-3.034;2024-03-08T12:53:21;100820.23;;;16.99;52.93
83815;BME280;73829;53.826;-3.034;2024-03-08T12:55:55;100814.45;;;16.98;52.97
83815;BME280;73829;53.826;-3.034;2024-03-08T12:58:26;100806.98;;;16.96;52.89
83815;BME280;73829;53.826;-3.034;2024-03-08T13:00:58;100808.52;;;16.97;52.93
83815;BME280;73829;53.826;-3.034;2024-03-08T13:03:30;100801.15;;;16.97;52.81
83815;BME280;73829;53.826;-3.034;2024-03-08T13:06:01;100796.96;;;16.96;52.85
83815;BME280;73829;53.826;-3.034;2024-03-08T13:08:32;100789.79;;;16.95;52.88
83815;BME280;73829;53.826;-3.034;2024-03-08T13:11:05;100783.64;;;16.95;52.94